sensor_id;sensor_type;location;lat;lon;timestamp;temperature;humidity
64599;SHT31;51008;51.504;11.548;2024-03-06T00:02:14;3.70;95.93
64599;SHT31;51008;51.504;11.548;2024-03-06T00:07:15;3.66;95.70
64599;SHT31;51008;51.504;11.548;2024-03-06T00:12:16;3.66;95.79
64599;SHT31;51008;51.504;11.548;2024-03-06T00:17:17;3.64;95.82
64599;SHT31;51008;51.504;11.548;2024-03-06T00:22:19;3.62;95.78
64599;SHT31;51008;51.504;11.548;2024-03-06T00:27:20;3.62;95.70
64599;SHT31;51008;51.504;11.548;2024-03-06T00:32:21;3.60;95.31
64599;SHT31;51008;51.504;11.548;2024-03-06T00:37:22;3.55;95.39
64599;SHT31;51008;51.504;11.548;2024-03-06T00:42:24;3.53;95.60
64599;SHT31;51008;51.504;11.548;2024-03-06T00:47:25;3.55;95.85
64599;SHT31;51008;51.504;11.548;2024-03-06T00:52:26;3.56;96.04
64599;SHT31;51008;51.504;11.548;2024-03-06T00:57:27;3.58;96.06
64599;SHT31;51008;51.504;11.548;2024-03-06T01:02:28;3.55;96.33
64599;SHT31;51008;51.504;11.548;2024-03-06T01:07:30;3.53;96.27
64599;SHT31;51008;51.504;11.548;2024-03-06T01:12:32;3.50;96.38
64599;SHT31;51008;51.504;11.548;2024-03-06T01:17:34;3.49;96.59
64599;SHT31;51008;51.504;11.548;2024-03-06T01:22:35;3.50;96.39
64599;SHT31;51008;51.504;11.548;2024-03-06T01:27:37;3.48;96.77
64599;SHT31;51008;51.504;11.548;2024-03-06T01:32:38;3.44;96.76
64599;SHT31;51008;51.504;11.548;2024-03-06T01:37:39;3.43;96.68
64599;SHT31;51008;51.504;11.548;2024-03-06T01:42:40;3.39;96.73
64599;SHT31;51008;51.504;11.548;2024-03-06T01:47:41;3.38;96.87
64599;SHT31;51008;51.504;11.548;2024-03-06T01:52:43;3.35;97.02
64599;SHT31;51008;51.504;11.548;2024-03-06T01:57:44;3.32;97.16
64599;SHT31;51008;51.504;11.548;2024-03-06T02:02:46;3.38;97.32
64599;SHT31;51008;51.504;11.548;2024-03-06T02:07:47;3.39;97.43
64599;SHT31;51008;51.504;11.548;2024-03-06T02:12:48;3.42;97.47
64599;SHT31;51008;51.504;11.548;2024-03-06T02:17:49;3.36;97.36
64599;SHT31;51008;51.504;11.548;2024-03-06T02:22:51;3.33;97.42
64599;SHT31;51008;51.504;11.548;2024-03-06T02:27:52;3.31;97.48
64599;SHT31;51008;51.504;11.548;2024-03-06T02:32:53;3.28;97.31
64599;SHT31;51008;51.504;11.548;2024-03-06T02:37:54;3.21;97.30
64599;SHT31;51008;51.504;11.548;2024-03-06T02:42:55;3.19;97.36
64599;SHT31;51008;51.504;11.548;2024-03-06T02:47:56;3.15;97.79
64599;SHT31;51008;51.504;11.548;2024-03-06T02:52:58;3.12;97.52
64599;SHT31;51008;51.504;11.548;2024-03-06T02:58:02;3.09;97.56
64599;SHT31;51008;51.504;11.548;2024-03-06T03:03:03;3.08;97.54
64599;SHT31;51008;51.504;11.548;2024-03-06T03:08:06;3.05;97.61
64599;SHT31;51008;51.504;11.548;2024-03-06T03:13:07;3.04;97.68
64599;SHT31;51008;51.504;11.548;2024-03-06T03:18:08;3.04;97.72
64599;SHT31;51008;51.504;11.548;2024-03-06T03:23:09;3.01;97.70
64599;SHT31;51008;51.504;11.548;2024-03-06T03:28:11;3.00;97.62
64599;SHT31;51008;51.504;11.548;2024-03-06T03:33:12;2.97;97.61
64599;SHT31;51008;51.504;11.548;2024-03-06T03:38:13;2.93;97.57
64599;SHT31;51008;51.504;11.548;2024-03-06T03:43:14;2.90;97.68
64599;SHT31;51008;51.504;11.548;2024-03-06T03:48:15;2.90;97.48
64599;SHT31;51008;51.504;11.548;2024-03-06T03:53:17;2.88;97.37
64599;SHT31;51008;51.504;11.548;2024-03-06T03:58:18;2.83;97.31
64599;SHT31;51008;51.504;11.548;2024-03-06T04:03:38;2.83;97.30
64599;SHT31;51008;51.504;11.548;2024-03-06T04:08:39;2.79;97.25
64599;SHT31;51008;51.504;11.548;2024-03-06T04:13:40;2.79;97.18
64599;SHT31;51008;51.504;11.548;2024-03-06T04:18:41;2.75;97.36
64599;SHT31;51008;51.504;11.548;2024-03-06T04:23:43;2.72;97.20
64599;SHT31;51008;51.504;11.548;2024-03-06T04:28:45;2.67;97.08
64599;SHT31;51008;51.504;11.548;2024-03-06T04:33:46;2.66;97.35
64599;SHT31;51008;51.504;11.548;2024-03-06T04:38:48;2.62;97.22
64599;SHT31;51008;51.504;11.548;2024-03-06T04:43:49;2.57;97.25
64599;SHT31;51008;51.504;11.548;2024-03-06T04:48:50;2.56;97.37
64599;SHT31;51008;51.504;11.548;2024-03-06T04:53:51;2.52;97.39
64599;SHT31;51008;51.504;11.548;2024-03-06T04:58:52;2.49;97.52
64599;SHT31;51008;51.504;11.548;2024-03-06T05:03:53;2.45;97.43
64599;SHT31;51008;51.504;11.548;2024-03-06T05:08:54;2.35;97.63
64599;SHT31;51008;51.504;11.548;2024-03-06T05:13:58;2.29;97.59
64599;SHT31;51008;51.504;11.548;2024-03-06T05:18:59;2.27;97.49
64599;SHT31;51008;51.504;11.548;2024-03-06T05:24:00;2.20;97.55
64599;SHT31;51008;51.504;11.548;2024-03-06T05:29:02;2.11;97.58
64599;SHT31;51008;51.504;11.548;2024-03-06T05:34:03;2.00;97.74
64599;SHT31;51008;51.504;11.548;2024-03-06T05:39:04;1.93;97.67
64599;SHT31;51008;51.504;11.548;2024-03-06T05:44:05;1.89;97.74
64599;SHT31;51008;51.504;11.548;2024-03-06T05:49:06;1.83;97.73
64599;SHT31;51008;51.504;11.548;2024-03-06T05:54:08;1.74;97.87
64599;SHT31;51008;51.504;11.548;2024-03-06T05:59:09;1.74;97.89
64599;SHT31;51008;51.504;11.548;2024-03-06T06:04:11;1.70;97.92
64599;SHT31;51008;51.504;11.548;2024-03-06T06:09:12;1.72;97.81
64599;SHT31;51008;51.504;11.548;2024-03-06T06:14:13;1.76;97.85
64599;SHT31;51008;51.504;11.548;2024-03-06T06:19:15;1.79;97.93
64599;SHT31;51008;51.504;11.548;2024-03-06T06:24:16;1.82;98.13
64599;SHT31;51008;51.504;11.548;2024-03-06T06:29:17;1.91;98.17
64599;SHT31;51008;51.504;11.548;2024-03-06T06:34:19;2.00;98.11
64599;SHT31;51008;51.504;11.548;2024-03-06T06:39:20;2.06;98.11
64599;SHT31;51008;51.504;11.548;2024-03-06T06:44:21;2.17;98.00
64599;SHT31;51008;51.504;11.548;2024-03-06T06:49:22;2.31;98.04
64599;SHT31;51008;51.504;11.548;2024-03-06T06:54:23;2.49;97.88
64599;SHT31;51008;51.504;11.548;2024-03-06T06:59:24;2.70;97.38
64599;SHT31;51008;51.504;11.548;2024-03-06T07:04:26;3.08;96.54
64599;SHT31;51008;51.504;11.548;2024-03-06T07:09:27;3.35;95.75
64599;SHT31;51008;51.504;11.548;2024-03-06T07:14:29;3.70;94.85
64599;SHT31;51008;51.504;11.548;2024-03-06T07:19:30;4.16;93.58
64599;SHT31;51008;51.504;11.548;2024-03-06T07:24:31;4.64;92.32
64599;SHT31;51008;51.504;11.548;2024-03-06T07:29:32;5.20;91.34
64599;SHT31;51008;51.504;11.548;2024-03-06T07:34:33;5.78;90.71
64599;SHT31;51008;51.504;11.548;2024-03-06T07:39:35;6.19;88.16
64599;SHT31;51008;51.504;11.548;2024-03-06T07:44:36;6.36;86.20
64599;SHT31;51008;51.504;11.548;2024-03-06T07:49:46;6.69;85.21
64599;SHT31;51008;51.504;11.548;2024-03-06T07:54:47;7.03;84.45
64599;SHT31;51008;51.504;11.548;2024-03-06T07:59:49;7.30;83.28
64599;SHT31;51008;51.504;11.548;2024-03-06T08:04:50;7.57;83.05
64599;SHT31;51008;51.504;11.548;2024-03-06T08:09:51;7.24;81.12
64599;SHT31;51008;51.504;11.548;2024-03-06T08:14:52;6.82;83.30
64599;SHT31;51008;51.504;11.548;2024-03-06T08:19:53;6.63;83.97
64599;SHT31;51008;51.504;11.548;2024-03-06T08:24:54;6.64;84.95
64599;SHT31;51008;51.504;11.548;2024-03-06T08:29:56;6.57;85.29
64599;SHT31;51008;51.504;11.548;2024-03-06T08:34:57;6.61;86.35
64599;SHT31;51008;51.504;11.548;2024-03-06T08:39:59;6.75;86.18
64599;SHT31;51008;51.504;11.548;2024-03-06T08:45:01;6.89;85.83
64599;SHT31;51008;51.504;11.548;2024-03-06T08:50:03;7.03;86.29
64599;SHT31;51008;51.504;11.548;2024-03-06T08:55:05;7.12;85.81
64599;SHT31;51008;51.504;11.548;2024-03-06T09:00:07;7.20;85.71
64599;SHT31;51008;51.504;11.548;2024-03-06T09:05:10;7.54;86.07
64599;SHT31;51008;51.504;11.548;2024-03-06T09:10:11;7.65;85.09
64599;SHT31;51008;51.504;11.548;2024-03-06T09:15:14;8.49;83.61
64599;SHT31;51008;51.504;11.548;2024-03-06T09:20:15;8.76;80.32
64599;SHT31;51008;51.504;11.548;2024-03-06T09:25:17;9.08;80.79
64599;SHT31;51008;51.504;11.548;2024-03-06T09:30:18;9.69;79.49
64599;SHT31;51008;51.504;11.548;2024-03-06T09:35:19;10.07;78.14
64599;SHT31;51008;51.504;11.548;2024-03-06T09:40:23;9.65;76.75
64599;SHT31;51008;51.504;11.548;2024-03-06T09:45:25;9.24;76.27
64599;SHT31;51008;51.504;11.548;2024-03-06T09:50:29;9.44;79.72
64599;SHT31;51008;51.504;11.548;2024-03-06T09:55:34;9.58;78.11
64599;SHT31;51008;51.504;11.548;2024-03-06T10:00:35;9.31;77.87
64599;SHT31;51008;51.504;11.548;2024-03-06T10:05:37;9.68;78.11
64599;SHT31;51008;51.504;11.548;2024-03-06T10:10:38;9.48;78.19
64599;SHT31;51008;51.504;11.548;2024-03-06T10:15:39;9.61;79.77
64599;SHT31;51008;51.504;11.548;2024-03-06T10:20:40;9.18;78.91
64599;SHT31;51008;51.504;11.548;2024-03-06T10:25:46;8.89;79.57
64599;SHT31;51008;51.504;11.548;2024-03-06T10:30:48;8.96;80.22
64599;SHT31;51008;51.504;11.548;2024-03-06T10:36:10;9.72;81.00
64599;SHT31;51008;51.504;11.548;2024-03-06T10:41:14;10.22;77.67
64599;SHT31;51008;51.504;11.548;2024-03-06T10:46:18;10.04;77.14
64599;SHT31;51008;51.504;11.548;2024-03-06T10:51:22;9.61;78.28
64599;SHT31;51008;51.504;11.548;2024-03-06T10:56:42;9.27;77.72
64599;SHT31;51008;51.504;11.548;2024-03-06T11:02:02;9.76;77.87
64599;SHT31;51008;51.504;11.548;2024-03-06T11:07:04;9.56;76.50
64599;SHT31;51008;51.504;11.548;2024-03-06T11:12:06;9.73;76.76
64599;SHT31;51008;51.504;11.548;2024-03-06T11:17:10;10.48;76.15
64599;SHT31;51008;51.504;11.548;2024-03-06T11:22:12;10.77;73.06
64599;SHT31;51008;51.504;11.548;2024-03-06T11:27:13;10.86;73.13
64599;SHT31;51008;51.504;11.548;2024-03-06T11:32:14;10.38;73.81
64599;SHT31;51008;51.504;11.548;2024-03-06T11:37:20;10.63;73.53
64599;SHT31;51008;51.504;11.548;2024-03-06T11:42:33;11.25;72.75
64599;SHT31;51008;51.504;11.548;2024-03-06T11:52:58;11.12;70.55
64599;SHT31;51008;51.504;11.548;2024-03-06T11:57:59;11.32;69.75
64599;SHT31;51008;51.504;11.548;2024-03-06T12:03:19;11.40;69.32
64599;SHT31;51008;51.504;11.548;2024-03-06T12:08:21;11.56;68.69
64599;SHT31;51008;51.504;11.548;2024-03-06T12:13:41;10.96;69.36
64599;SHT31;51008;51.504;11.548;2024-03-06T12:19:01;10.58;70.40
64599;SHT31;51008;51.504;11.548;2024-03-06T12:24:07;10.73;71.60
64599;SHT31;51008;51.504;11.548;2024-03-06T12:29:11;11.12;72.23
64599;SHT31;51008;51.504;11.548;2024-03-06T12:34:15;11.06;71.80
64599;SHT31;51008;51.504;11.548;2024-03-06T12:39:17;10.27;72.63
64599;SHT31;51008;51.504;11.548;2024-03-06T12:44:22;10.00;72.89
64599;SHT31;51008;51.504;11.548;2024-03-06T12:49:23;10.20;73.69
64599;SHT31;51008;51.504;11.548;2024-03-06T12:54:24;10.49;73.29
64599;SHT31;51008;51.504;11.548;2024-03-06T12:59:25;10.24;72.75
64599;SHT31;51008;51.504;11.548;2024-03-06T13:04:27;9.83;74.47
64599;SHT31;51008;51.504;11.548;2024-03-06T13:09:28;9.76;73.77
64599;SHT31;51008;51.504;11.548;2024-03-06T13:14:29;10.04;73.13
64599;SHT31;51008;51.504;11.548;2024-03-06T13:19:46;10.31;72.46
64599;SHT31;51008;51.504;11.548;2024-03-06T13:24:47;10.01;70.86
64599;SHT31;51008;51.504;11.548;2024-03-06T13:29:48;10.10;72.16
64599;SHT31;51008;51.504;11.548;2024-03-06T13:34:50;10.27;72.09
64599;SHT31;51008;51.504;11.548;2024-03-06T13:39:51;10.04;70.35
64599;SHT31;51008;51.504;11.548;2024-03-06T13:44:52;9.93;70.76
64599;SHT31;51008;51.504;11.548;2024-03-06T13:49:53;10.04;69.65
64599;SHT31;51008;51.504;11.548;2024-03-06T13:54:54;10.13;71.97
64599;SHT31;51008;51.504;11.548;2024-03-06T13:59:56;9.94;71.47
64599;SHT31;51008;51.504;11.548;2024-03-06T14:04:57;9.78;71.56
64599;SHT31;51008;51.504;11.548;2024-03-06T14:09:58;9.72;71.53
64599;SHT31;51008;51.504;11.548;2024-03-06T14:14:59;9.82;72.43
64599;SHT31;51008;51.504;11.548;2024-03-06T14:20:00;9.48;71.05
64599;SHT31;51008;51.504;11.548;2024-03-06T14:25:01;9.42;72.68
64599;SHT31;51008;51.504;11.548;2024-03-06T14:30:06;9.56;71.40
64599;SHT31;51008;51.504;11.548;2024-03-06T14:35:08;9.53;71.89
64599;SHT31;51008;51.504;11.548;2024-03-06T14:40:10;9.34;73.28
64599;SHT31;51008;51.504;11.548;2024-03-06T14:45:12;9.38;72.64
64599;SHT31;51008;51.504;11.548;2024-03-06T14:50:16;9.24;72.52
64599;SHT31;51008;51.504;11.548;2024-03-06T14:55:17;9.14;73.67
64599;SHT31;51008;51.504;11.548;2024-03-06T15:00:18;9.20;72.93
64599;SHT31;51008;51.504;11.548;2024-03-06T15:05:19;9.17;73.10
64599;SHT31;51008;51.504;11.548;2024-03-06T15:10:21;9.04;72.42
64599;SHT31;51008;51.504;11.548;2024-03-06T15:15:22;8.99;73.29
64599;SHT31;51008;51.504;11.548;2024-03-06T15:20:23;8.93;71.91
64599;SHT31;51008;51.504;11.548;2024-03-06T15:25:24;8.66;71.09
64599;SHT31;51008;51.504;11.548;2024-03-06T15:30:26;8.48;72.08
64599;SHT31;51008;51.504;11.548;2024-03-06T15:35:27;8.28;71.92
64599;SHT31;51008;51.504;11.548;2024-03-06T15:40:28;8.14;73.09
64599;SHT31;51008;51.504;11.548;2024-03-06T15:45:30;8.00;73.17
64599;SHT31;51008;51.504;11.548;2024-03-06T15:50:31;7.90;73.35
64599;SHT31;51008;51.504;11.548;2024-03-06T15:55:33;7.79;74.16
64599;SHT31;51008;51.504;11.548;2024-03-06T16:00:35;7.64;74.74
64599;SHT31;51008;51.504;11.548;2024-03-06T16:05:36;7.54;74.51
64599;SHT31;51008;51.504;11.548;2024-03-06T16:10:39;7.40;75.16
64599;SHT31;51008;51.504;11.548;2024-03-06T16:15:40;7.26;76.03
64599;SHT31;51008;51.504;11.548;2024-03-06T16:20:41;7.07;76.73
64599;SHT31;51008;51.504;11.548;2024-03-06T16:25:42;6.95;77.28
64599;SHT31;51008;51.504;11.548;2024-03-06T16:30:43;6.78;77.18
64599;SHT31;51008;51.504;11.548;2024-03-06T16:35:44;6.64;77.77
64599;SHT31;51008;51.504;11.548;2024-03-06T16:40:46;6.47;78.22
64599;SHT31;51008;51.504;11.548;2024-03-06T16:45:47;6.29;78.69
64599;SHT31;51008;51.504;11.548;2024-03-06T16:50:48;6.10;79.49
64599;SHT31;51008;51.504;11.548;2024-03-06T16:55:49;5.97;80.03
64599;SHT31;51008;51.504;11.548;2024-03-06T17:00:51;5.79;80.78
64599;SHT31;51008;51.504;11.548;2024-03-06T17:05:52;5.65;81.20
64599;SHT31;51008;51.504;11.548;2024-03-06T17:10:53;5.53;81.59
64599;SHT31;51008;51.504;11.548;2024-03-06T17:15:54;5.42;81.86
64599;SHT31;51008;51.504;11.548;2024-03-06T17:20:55;5.32;81.98
64599;SHT31;51008;51.504;11.548;2024-03-06T17:25:56;5.26;82.19
64599;SHT31;51008;51.504;11.548;2024-03-06T17:30:58;5.13;83.31
64599;SHT31;51008;51.504;11.548;2024-03-06T17:35:59;5.15;83.82
64599;SHT31;51008;51.504;11.548;2024-03-06T17:41:00;5.26;84.03
64599;SHT31;51008;51.504;11.548;2024-03-06T17:46:01;5.37;84.34
64599;SHT31;51008;51.504;11.548;2024-03-06T17:51:02;5.51;84.35
64599;SHT31;51008;51.504;11.548;2024-03-06T17:56:04;5.67;84.16
64599;SHT31;51008;51.504;11.548;2024-03-06T18:01:05;5.72;84.39
64599;SHT31;51008;51.504;11.548;2024-03-06T18:06:06;5.77;84.37
64599;SHT31;51008;51.504;11.548;2024-03-06T18:11:08;5.75;84.46
64599;SHT31;51008;51.504;11.548;2024-03-06T18:16:09;5.78;84.60
64599;SHT31;51008;51.504;11.548;2024-03-06T18:21:10;5.74;84.45
64599;SHT31;51008;51.504;11.548;2024-03-06T18:26:12;5.75;84.86
64599;SHT31;51008;51.504;11.548;2024-03-06T18:31:13;5.71;84.41
64599;SHT31;51008;51.504;11.548;2024-03-06T18:36:15;5.65;84.38
64599;SHT31;51008;51.504;11.548;2024-03-06T18:41:16;5.57;84.22
64599;SHT31;51008;51.504;11.548;2024-03-06T18:46:17;5.51;84.61
64599;SHT31;51008;51.504;11.548;2024-03-06T18:51:19;5.46;84.99
64599;SHT31;51008;51.504;11.548;2024-03-06T18:56:20;5.33;85.16
64599;SHT31;51008;51.504;11.548;2024-03-06T19:01:22;5.30;85.46
64599;SHT31;51008;51.504;11.548;2024-03-06T19:06:23;5.29;85.47
64599;SHT31;51008;51.504;11.548;2024-03-06T19:11:24;5.25;85.26
64599;SHT31;51008;51.504;11.548;2024-03-06T19:16:25;5.23;85.20
64599;SHT31;51008;51.504;11.548;2024-03-06T19:21:27;5.26;84.82
64599;SHT31;51008;51.504;11.548;2024-03-06T19:26:29;5.22;85.04
64599;SHT31;51008;51.504;11.548;2024-03-06T19:31:30;5.18;85.20
64599;SHT31;51008;51.504;11.548;2024-03-06T19:36:31;5.16;85.38
64599;SHT31;51008;51.504;11.548;2024-03-06T19:41:32;5.15;85.61
64599;SHT31;51008;51.504;11.548;2024-03-06T19:46:34;5.12;85.67
64599;SHT31;51008;51.504;11.548;2024-03-06T19:51:35;5.08;85.95
64599;SHT31;51008;51.504;11.548;2024-03-06T19:56:36;5.09;86.12
64599;SHT31;51008;51.504;11.548;2024-03-06T20:01:38;5.05;86.18
64599;SHT31;51008;51.504;11.548;2024-03-06T20:06:39;5.05;85.89
64599;SHT31;51008;51.504;11.548;2024-03-06T20:11:40;5.01;86.14
64599;SHT31;51008;51.504;11.548;2024-03-06T20:16:42;4.92;86.19
64599;SHT31;51008;51.504;11.548;2024-03-06T20:21:43;4.91;86.34
64599;SHT31;51008;51.504;11.548;2024-03-06T20:26:44;4.87;86.26
64599;SHT31;51008;51.504;11.548;2024-03-06T20:31:45;4.85;86.58
64599;SHT31;51008;51.504;11.548;2024-03-06T20:36:47;4.84;86.51
64599;SHT31;51008;51.504;11.548;2024-03-06T20:41:48;4.83;86.58
64599;SHT31;51008;51.504;11.548;2024-03-06T20:46:49;4.77;86.88
64599;SHT31;51008;51.504;11.548;2024-03-06T20:51:51;4.73;86.76
64599;SHT31;51008;51.504;11.548;2024-03-06T20:56:52;4.68;86.95
64599;SHT31;51008;51.504;11.548;2024-03-06T21:01:53;4.66;86.68
64599;SHT31;51008;51.504;11.548;2024-03-06T21:06:54;4.57;86.80
64599;SHT31;51008;51.504;11.548;2024-03-06T21:11:56;4.56;86.84
64599;SHT31;51008;51.504;11.548;2024-03-06T21:16:58;4.54;86.73
64599;SHT31;51008;51.504;11.548;2024-03-06T21:21:59;4.53;86.79
64599;SHT31;51008;51.504;11.548;2024-03-06T21:27:01;4.52;86.66
64599;SHT31;51008;51.504;11.548;2024-03-06T21:32:02;4.49;86.95
64599;SHT31;51008;51.504;11.548;2024-03-06T21:37:03;4.46;87.23
64599;SHT31;51008;51.504;11.548;2024-03-06T21:42:04;4.39;87.45
64599;SHT31;51008;51.504;11.548;2024-03-06T21:47:06;4.40;87.68
64599;SHT31;51008;51.504;11.548;2024-03-06T21:52:07;4.33;87.73
64599;SHT31;51008;51.504;11.548;2024-03-06T21:57:08;4.28;87.96
64599;SHT31;51008;51.504;11.548;2024-03-06T22:02:09;4.25;88.45
64599;SHT31;51008;51.504;11.548;2024-03-06T22:07:11;4.13;89.23
64599;SHT31;51008;51.504;11.548;2024-03-06T22:12:12;4.16;89.26
64599;SHT31;51008;51.504;11.548;2024-03-06T22:17:13;4.23;89.26
64599;SHT31;51008;51.504;11.548;2024-03-06T22:22:14;4.25;89.34
64599;SHT31;51008;51.504;11.548;2024-03-06T22:27:15;4.29;89.54
64599;SHT31;51008;51.504;11.548;2024-03-06T22:32:17;4.33;89.57
64599;SHT31;51008;51.504;11.548;2024-03-06T22:37:18;4.33;89.21
64599;SHT31;51008;51.504;11.548;2024-03-06T22:42:19;4.33;88.57
64599;SHT31;51008;51.504;11.548;2024-03-06T22:47:20;4.36;87.74
64599;SHT31;51008;51.504;11.548;2024-03-06T22:52:21;4.39;87.45
64599;SHT31;51008;51.504;11.548;2024-03-06T22:57:22;4.40;87.49
64599;SHT31;51008;51.504;11.548;2024-03-06T23:02:24;4.40;87.67
64599;SHT31;51008;51.504;11.548;2024-03-06T23:07:25;4.38;87.78
64599;SHT31;51008;51.504;11.548;2024-03-06T23:12:26;4.40;88.00
64599;SHT31;51008;51.504;11.548;2024-03-06T23:17:27;4.39;88.21
64599;SHT31;51008;51.504;11.548;2024-03-06T23:22:28;4.40;88.54
64599;SHT31;51008;51.504;11.548;2024-03-06T23:27:29;4.36;88.46
64599;SHT31;51008;51.504;11.548;2024-03-06T23:32:30;4.36;88.41
64599;SHT31;51008;51.504;11.548;2024-03-06T23:37:32;4.42;88.32
64599;SHT31;51008;51.504;11.548;2024-03-06T23:42:33;4.38;88.45
64599;SHT31;51008;51.504;11.548;2024-03-06T23:47:38;4.36;88.54
64599;SHT31;51008;51.504;11.548;2024-03-06T23:52:39;4.39;88.68
64599;SHT31;51008;51.504;11.548;2024-03-06T23:57:40;4.42;88.79
